sensor_id;sensor_type;location;lat;lon;timestamp;P1;durP1;ratioP1;P2;durP2;ratioP2
16804;SDS011;8520;50.102;20.010;2022-11-15T00:02:37;83.63;;;61.90;;
16804;SDS011;8520;50.102;20.010;2022-11-15T00:05:23;738.00;;;107.07;;
16804;SDS011;8520;50.102;20.010;2022-11-15T00:08:11;115.37;;;63.57;;
16804;SDS011;8520;50.102;20.010;2022-11-15T00:10:59;362.73;;;84.33;;
16804;SDS011;8520;50.102;20.010;2022-11-15T00:13:47;72.53;;;64.90;;
16804;SDS011;8520;50.102;20.010;2022-11-15T00:16:33;203.97;;;73.97;;
16804;SDS011;8520;50.102;20.010;2022-11-15T00:19:20;367.10;;;91.07;;
16804;SDS011;8520;50.102;20.010;2022-11-15T00:22:07;224.73;;;77.43;;
16804;SDS011;8520;50.102;20.010;2022-11-15T00:24:54;159.63;;;74.03;;
16804;SDS011;8520;50.102;20.010;2022-11-15T00:27:41;165.10;;;75.10;;
16804;SDS011;8520;50.102;20.010;2022-11-15T00:30:28;92.00;;;73.90;;
16804;SDS011;8520;50.102;20.010;2022-11-15T00:33:14;346.87;;;88.40;;
16804;SDS011;8520;50.102;20.010;2022-11-15T00:36:01;613.43;;;104.73;;
16804;SDS011;8520;50.102;20.010;2022-11-15T00:38:49;609.83;;;103.30;;
16804;SDS011;8520;50.102;20.010;2022-11-15T00:41:37;71.60;;;65.03;;
16804;SDS011;8520;50.102;20.010;2022-11-15T00:44:23;145.53;;;67.57;;
16804;SDS011;8520;50.102;20.010;2022-11-15T00:47:10;240.47;;;69.53;;
16804;SDS011;8520;50.102;20.010;2022-11-15T00:49:57;138.37;;;65.40;;
16804;SDS011;8520;50.102;20.010;2022-11-15T00:52:43;400.73;;;78.07;;
16804;SDS011;8520;50.102;20.010;2022-11-15T00:55:30;472.07;;;84.07;;
16804;SDS011;8520;50.102;20.010;2022-11-15T00:58:18;94.60;;;59.67;;
16804;SDS011;8520;50.102;20.010;2022-11-15T01:01:06;63.63;;;57.63;;
16804;SDS011;8520;50.102;20.010;2022-11-15T01:03:55;565.47;;;88.63;;
16804;SDS011;8520;50.102;20.010;2022-11-15T01:06:45;288.33;;;70.63;;
16804;SDS011;8520;50.102;20.010;2022-11-15T01:09:32;405.43;;;77.47;;
16804;SDS011;8520;50.102;20.010;2022-11-15T01:12:18;394.83;;;74.77;;
16804;SDS011;8520;50.102;20.010;2022-11-15T01:15:07;223.57;;;62.63;;
16804;SDS011;8520;50.102;20.010;2022-11-15T01:17:54;176.13;;;60.93;;
16804;SDS011;8520;50.102;20.010;2022-11-15T01:20:41;228.77;;;62.07;;
16804;SDS011;8520;50.102;20.010;2022-11-15T01:23:27;116.17;;;52.67;;
16804;SDS011;8520;50.102;20.010;2022-11-15T01:26:14;70.30;;;52.60;;
16804;SDS011;8520;50.102;20.010;2022-11-15T01:29:01;275.63;;;66.53;;
16804;SDS011;8520;50.102;20.010;2022-11-15T01:31:50;163.87;;;58.03;;
16804;SDS011;8520;50.102;20.010;2022-11-15T01:34:36;119.23;;;56.60;;
16804;SDS011;8520;50.102;20.010;2022-11-15T01:37:23;61.27;;;54.70;;
16804;SDS011;8520;50.102;20.010;2022-11-15T01:40:10;289.53;;;55.43;;
16804;SDS011;8520;50.102;20.010;2022-11-15T01:42:57;59.23;;;53.57;;
16804;SDS011;8520;50.102;20.010;2022-11-15T01:45:43;63.30;;;51.50;;
16804;SDS011;8520;50.102;20.010;2022-11-15T01:48:33;326.90;;;63.87;;
16804;SDS011;8520;50.102;20.010;2022-11-15T01:51:21;62.90;;;53.73;;
16804;SDS011;8520;50.102;20.010;2022-11-15T01:54:12;327.60;;;66.57;;
16804;SDS011;8520;50.102;20.010;2022-11-15T01:57:03;56.37;;;52.50;;
16804;SDS011;8520;50.102;20.010;2022-11-15T01:59:53;442.77;;;73.43;;
16804;SDS011;8520;50.102;20.010;2022-11-15T02:02:40;254.17;;;65.03;;
16804;SDS011;8520;50.102;20.010;2022-11-15T02:05:29;59.20;;;53.20;;
16804;SDS011;8520;50.102;20.010;2022-11-15T02:08:16;397.10;;;74.17;;
16804;SDS011;8520;50.102;20.010;2022-11-15T02:11:07;104.97;;;55.63;;
16804;SDS011;8520;50.102;20.010;2022-11-15T02:13:54;86.77;;;54.37;;
16804;SDS011;8520;50.102;20.010;2022-11-15T02:16:43;305.63;;;68.63;;
16804;SDS011;8520;50.102;20.010;2022-11-15T02:19:43;58.90;;;54.07;;
16804;SDS011;8520;50.102;20.010;2022-11-15T02:22:51;155.73;;;59.07;;
16804;SDS011;8520;50.102;20.010;2022-11-15T02:25:54;57.37;;;53.03;;
16804;SDS011;8520;50.102;20.010;2022-11-15T02:28:53;110.00;;;54.93;;
16804;SDS011;8520;50.102;20.010;2022-11-15T02:31:50;80.53;;;54.40;;
16804;SDS011;8520;50.102;20.010;2022-11-15T02:34:43;105.70;;;56.53;;
16804;SDS011;8520;50.102;20.010;2022-11-15T02:37:39;364.43;;;71.37;;
16804;SDS011;8520;50.102;20.010;2022-11-15T02:40:34;257.63;;;64.53;;
16804;SDS011;8520;50.102;20.010;2022-11-15T02:43:28;268.70;;;65.60;;
16804;SDS011;8520;50.102;20.010;2022-11-15T02:46:41;66.47;;;59.63;;
16804;SDS011;8520;50.102;20.010;2022-11-15T02:50:03;67.70;;;61.67;;
16804;SDS011;8520;50.102;20.010;2022-11-15T02:52:54;629.83;;;88.73;;
16804;SDS011;8520;50.102;20.010;2022-11-15T02:55:43;68.83;;;61.97;;
16804;SDS011;8520;50.102;20.010;2022-11-15T03:01:50;83.90;;;66.13;;
16804;SDS011;8520;50.102;20.010;2022-11-15T03:04:47;77.40;;;65.67;;
16804;SDS011;8520;50.102;20.010;2022-11-15T03:07:42;174.80;;;71.30;;
16804;SDS011;8520;50.102;20.010;2022-11-15T03:10:46;183.23;;;76.13;;
16804;SDS011;8520;50.102;20.010;2022-11-15T03:13:40;82.80;;;73.97;;
16804;SDS011;8520;50.102;20.010;2022-11-15T03:16:34;93.47;;;76.67;;
16804;SDS011;8520;50.102;20.010;2022-11-15T03:19:26;323.33;;;81.70;;
16804;SDS011;8520;50.102;20.010;2022-11-15T03:22:17;199.47;;;68.23;;
16804;SDS011;8520;50.102;20.010;2022-11-15T03:25:09;154.27;;;70.03;;
16804;SDS011;8520;50.102;20.010;2022-11-15T03:27:59;129.93;;;63.57;;
16804;SDS011;8520;50.102;20.010;2022-11-15T03:30:49;264.50;;;73.10;;
16804;SDS011;8520;50.102;20.010;2022-11-15T03:33:38;142.20;;;72.13;;
16804;SDS011;8520;50.102;20.010;2022-11-15T03:36:25;272.43;;;78.97;;
16804;SDS011;8520;50.102;20.010;2022-11-15T03:39:13;652.50;;;95.93;;
16804;SDS011;8520;50.102;20.010;2022-11-15T03:42:08;80.07;;;68.20;;
16804;SDS011;8520;50.102;20.010;2022-11-15T03:45:02;83.80;;;68.03;;
16804;SDS011;8520;50.102;20.010;2022-11-15T03:47:58;79.47;;;67.77;;
16804;SDS011;8520;50.102;20.010;2022-11-15T03:50:48;112.13;;;69.40;;
16804;SDS011;8520;50.102;20.010;2022-11-15T03:53:35;278.13;;;79.43;;
16804;SDS011;8520;50.102;20.010;2022-11-15T03:56:22;409.67;;;75.37;;
16804;SDS011;8520;50.102;20.010;2022-11-15T03:59:09;504.77;;;83.97;;
16804;SDS011;8520;50.102;20.010;2022-11-15T04:01:56;149.67;;;60.63;;
16804;SDS011;8520;50.102;20.010;2022-11-15T04:04:42;94.97;;;57.17;;
16804;SDS011;8520;50.102;20.010;2022-11-15T04:07:29;96.70;;;57.17;;
16804;SDS011;8520;50.102;20.010;2022-11-15T04:10:16;768.07;;;104.33;;
16804;SDS011;8520;50.102;20.010;2022-11-15T04:13:03;313.30;;;65.13;;
16804;SDS011;8520;50.102;20.010;2022-11-15T04:15:50;148.97;;;54.97;;
16804;SDS011;8520;50.102;20.010;2022-11-15T04:18:37;249.00;;;62.20;;
16804;SDS011;8520;50.102;20.010;2022-11-15T04:21:23;958.63;;;122.53;;
16804;SDS011;8520;50.102;20.010;2022-11-15T04:24:27;122.43;;;58.90;;
16804;SDS011;8520;50.102;20.010;2022-11-15T04:27:14;307.97;;;71.60;;
16804;SDS011;8520;50.102;20.010;2022-11-15T04:30:00;505.60;;;80.13;;
16804;SDS011;8520;50.102;20.010;2022-11-15T04:32:48;64.80;;;58.03;;
16804;SDS011;8520;50.102;20.010;2022-11-15T04:35:35;61.37;;;56.50;;
16804;SDS011;8520;50.102;20.010;2022-11-15T04:38:21;317.47;;;72.73;;
16804;SDS011;8520;50.102;20.010;2022-11-15T04:41:07;294.80;;;68.37;;
16804;SDS011;8520;50.102;20.010;2022-11-15T04:43:53;265.67;;;69.50;;
16804;SDS011;8520;50.102;20.010;2022-11-15T04:46:40;233.23;;;67.10;;
16804;SDS011;8520;50.102;20.010;2022-11-15T04:49:28;228.40;;;66.27;;
16804;SDS011;8520;50.102;20.010;2022-11-15T04:52:14;60.53;;;55.53;;
16804;SDS011;8520;50.102;20.010;2022-11-15T04:55:01;407.43;;;81.20;;
16804;SDS011;8520;50.102;20.010;2022-11-15T04:57:58;63.43;;;53.13;;
16804;SDS011;8520;50.102;20.010;2022-11-15T05:00:45;163.37;;;61.73;;
16804;SDS011;8520;50.102;20.010;2022-11-15T05:03:32;160.63;;;57.57;;
16804;SDS011;8520;50.102;20.010;2022-11-15T05:06:42;131.50;;;55.37;;
16804;SDS011;8520;50.102;20.010;2022-11-15T05:09:29;239.47;;;62.40;;
16804;SDS011;8520;50.102;20.010;2022-11-15T05:12:16;206.73;;;60.13;;
16804;SDS011;8520;50.102;20.010;2022-11-15T05:15:02;279.40;;;70.50;;
16804;SDS011;8520;50.102;20.010;2022-11-15T05:17:49;263.70;;;66.83;;
16804;SDS011;8520;50.102;20.010;2022-11-15T05:20:36;56.93;;;51.13;;
16804;SDS011;8520;50.102;20.010;2022-11-15T05:23:24;253.23;;;64.93;;
16804;SDS011;8520;50.102;20.010;2022-11-15T05:26:11;604.93;;;95.77;;
16804;SDS011;8520;50.102;20.010;2022-11-15T05:29:02;54.67;;;49.47;;
16804;SDS011;8520;50.102;20.010;2022-11-15T05:31:49;232.20;;;61.77;;
16804;SDS011;8520;50.102;20.010;2022-11-15T05:34:36;189.93;;;57.83;;
16804;SDS011;8520;50.102;20.010;2022-11-15T05:37:22;54.30;;;49.20;;
16804;SDS011;8520;50.102;20.010;2022-11-15T05:40:10;52.87;;;49.10;;
16804;SDS011;8520;50.102;20.010;2022-11-15T05:42:56;289.37;;;66.37;;
16804;SDS011;8520;50.102;20.010;2022-11-15T05:45:46;432.37;;;77.83;;
16804;SDS011;8520;50.102;20.010;2022-11-15T05:48:33;171.73;;;54.03;;
16804;SDS011;8520;50.102;20.010;2022-11-15T05:51:21;65.60;;;46.53;;
16804;SDS011;8520;50.102;20.010;2022-11-15T05:54:08;408.53;;;78.80;;
16804;SDS011;8520;50.102;20.010;2022-11-15T05:56:58;446.13;;;81.83;;
16804;SDS011;8520;50.102;20.010;2022-11-15T05:59:45;56.30;;;52.13;;
16804;SDS011;8520;50.102;20.010;2022-11-15T06:02:31;422.87;;;79.00;;
16804;SDS011;8520;50.102;20.010;2022-11-15T06:05:18;82.87;;;56.63;;
16804;SDS011;8520;50.102;20.010;2022-11-15T06:08:04;178.90;;;65.37;;
16804;SDS011;8520;50.102;20.010;2022-11-15T06:10:51;408.23;;;78.13;;
16804;SDS011;8520;50.102;20.010;2022-11-15T06:13:39;78.50;;;60.87;;
16804;SDS011;8520;50.102;20.010;2022-11-15T06:16:25;536.67;;;97.10;;
16804;SDS011;8520;50.102;20.010;2022-11-15T06:19:12;152.27;;;73.83;;
16804;SDS011;8520;50.102;20.010;2022-11-15T06:21:58;78.47;;;69.10;;
16804;SDS011;8520;50.102;20.010;2022-11-15T06:24:45;553.50;;;104.13;;
16804;SDS011;8520;50.102;20.010;2022-11-15T06:27:31;443.70;;;92.23;;
16804;SDS011;8520;50.102;20.010;2022-11-15T06:30:19;314.80;;;78.50;;
16804;SDS011;8520;50.102;20.010;2022-11-15T06:33:07;174.07;;;71.00;;
16804;SDS011;8520;50.102;20.010;2022-11-15T06:35:54;344.40;;;79.17;;
16804;SDS011;8520;50.102;20.010;2022-11-15T06:38:40;134.10;;;66.20;;
16804;SDS011;8520;50.102;20.010;2022-11-15T06:41:27;259.77;;;74.00;;
16804;SDS011;8520;50.102;20.010;2022-11-15T06:44:13;71.77;;;61.73;;
16804;SDS011;8520;50.102;20.010;2022-11-15T06:47:02;132.63;;;64.40;;
16804;SDS011;8520;50.102;20.010;2022-11-15T06:49:49;82.37;;;56.50;;
16804;SDS011;8520;50.102;20.010;2022-11-15T06:52:36;62.57;;;56.13;;
16804;SDS011;8520;50.102;20.010;2022-11-15T06:55:22;68.07;;;54.77;;
16804;SDS011;8520;50.102;20.010;2022-11-15T06:58:09;84.20;;;54.57;;
16804;SDS011;8520;50.102;20.010;2022-11-15T07:00:57;65.07;;;52.13;;
16804;SDS011;8520;50.102;20.010;2022-11-15T07:03:46;62.43;;;51.67;;
16804;SDS011;8520;50.102;20.010;2022-11-15T07:06:33;348.10;;;69.93;;
16804;SDS011;8520;50.102;20.010;2022-11-15T07:09:19;55.17;;;48.40;;
16804;SDS011;8520;50.102;20.010;2022-11-15T07:12:06;115.90;;;48.60;;
16804;SDS011;8520;50.102;20.010;2022-11-15T07:14:53;393.47;;;67.03;;
16804;SDS011;8520;50.102;20.010;2022-11-15T07:17:39;60.83;;;42.00;;
16804;SDS011;8520;50.102;20.010;2022-11-15T07:20:27;177.00;;;49.50;;
16804;SDS011;8520;50.102;20.010;2022-11-15T07:23:13;282.80;;;59.57;;
16804;SDS011;8520;50.102;20.010;2022-11-15T07:26:00;89.37;;;44.93;;
16804;SDS011;8520;50.102;20.010;2022-11-15T07:28:46;294.03;;;56.97;;
16804;SDS011;8520;50.102;20.010;2022-11-15T07:31:33;202.13;;;50.20;;
16804;SDS011;8520;50.102;20.010;2022-11-15T07:34:20;102.87;;;43.73;;
16804;SDS011;8520;50.102;20.010;2022-11-15T07:37:08;132.73;;;46.27;;
16804;SDS011;8520;50.102;20.010;2022-11-15T07:39:55;46.60;;;41.80;;
16804;SDS011;8520;50.102;20.010;2022-11-15T07:42:42;172.03;;;45.77;;
16804;SDS011;8520;50.102;20.010;2022-11-15T07:45:41;45.33;;;40.97;;
16804;SDS011;8520;50.102;20.010;2022-11-15T07:48:28;48.20;;;40.87;;
16804;SDS011;8520;50.102;20.010;2022-11-15T07:51:28;43.57;;;40.27;;
16804;SDS011;8520;50.102;20.010;2022-11-15T07:54:16;321.17;;;55.30;;
16804;SDS011;8520;50.102;20.010;2022-11-15T07:57:02;95.30;;;43.53;;
16804;SDS011;8520;50.102;20.010;2022-11-15T07:59:51;45.43;;;39.33;;
16804;SDS011;8520;50.102;20.010;2022-11-15T08:02:38;52.37;;;38.83;;
16804;SDS011;8520;50.102;20.010;2022-11-15T08:05:25;80.37;;;39.37;;
16804;SDS011;8520;50.102;20.010;2022-11-15T08:08:12;42.90;;;39.20;;
16804;SDS011;8520;50.102;20.010;2022-11-15T08:10:59;112.70;;;41.47;;
16804;SDS011;8520;50.102;20.010;2022-11-15T08:13:47;38.47;;;35.47;;
16804;SDS011;8520;50.102;20.010;2022-11-15T08:16:33;38.30;;;34.53;;
16804;SDS011;8520;50.102;20.010;2022-11-15T08:19:20;72.93;;;35.40;;
16804;SDS011;8520;50.102;20.010;2022-11-15T08:22:06;39.20;;;35.20;;
16804;SDS011;8520;50.102;20.010;2022-11-15T08:24:53;713.70;;;75.43;;
16804;SDS011;8520;50.102;20.010;2022-11-15T08:27:41;36.20;;;32.53;;
16804;SDS011;8520;50.102;20.010;2022-11-15T08:30:28;36.50;;;33.57;;
16804;SDS011;8520;50.102;20.010;2022-11-15T08:33:15;35.93;;;33.37;;
16804;SDS011;8520;50.102;20.010;2022-11-15T08:36:01;36.23;;;33.10;;
16804;SDS011;8520;50.102;20.010;2022-11-15T08:38:48;37.87;;;34.70;;
16804;SDS011;8520;50.102;20.010;2022-11-15T08:41:35;35.93;;;33.13;;
16804;SDS011;8520;50.102;20.010;2022-11-15T08:44:24;37.33;;;32.17;;
16804;SDS011;8520;50.102;20.010;2022-11-15T08:47:11;36.47;;;32.57;;
16804;SDS011;8520;50.102;20.010;2022-11-15T08:49:58;35.40;;;32.73;;
16804;SDS011;8520;50.102;20.010;2022-11-15T08:52:45;34.43;;;31.83;;
16804;SDS011;8520;50.102;20.010;2022-11-15T08:55:35;37.43;;;33.43;;
16804;SDS011;8520;50.102;20.010;2022-11-15T08:58:23;35.17;;;32.00;;
16804;SDS011;8520;50.102;20.010;2022-11-15T09:01:16;33.27;;;30.87;;
16804;SDS011;8520;50.102;20.010;2022-11-15T09:04:03;240.63;;;42.73;;
16804;SDS011;8520;50.102;20.010;2022-11-15T09:06:50;221.60;;;41.07;;
16804;SDS011;8520;50.102;20.010;2022-11-15T09:09:37;168.50;;;35.63;;
16804;SDS011;8520;50.102;20.010;2022-11-15T09:12:24;60.23;;;29.00;;
16804;SDS011;8520;50.102;20.010;2022-11-15T09:15:10;99.40;;;33.10;;
16804;SDS011;8520;50.102;20.010;2022-11-15T09:17:59;30.83;;;28.40;;
16804;SDS011;8520;50.102;20.010;2022-11-15T09:20:46;33.80;;;31.17;;
16804;SDS011;8520;50.102;20.010;2022-11-15T09:23:32;31.87;;;29.47;;
16804;SDS011;8520;50.102;20.010;2022-11-15T09:26:19;32.47;;;29.97;;
16804;SDS011;8520;50.102;20.010;2022-11-15T09:29:05;31.57;;;29.17;;
16804;SDS011;8520;50.102;20.010;2022-11-15T09:31:52;32.53;;;30.10;;
16804;SDS011;8520;50.102;20.010;2022-11-15T09:34:40;30.87;;;28.40;;
16804;SDS011;8520;50.102;20.010;2022-11-15T09:37:26;29.83;;;27.67;;
16804;SDS011;8520;50.102;20.010;2022-11-15T09:40:13;31.07;;;28.57;;
16804;SDS011;8520;50.102;20.010;2022-11-15T09:43:17;31.70;;;29.07;;
16804;SDS011;8520;50.102;20.010;2022-11-15T09:46:15;32.00;;;29.30;;
16804;SDS011;8520;50.102;20.010;2022-11-15T09:49:10;29.67;;;27.20;;
16804;SDS011;8520;50.102;20.010;2022-11-15T09:51:49;31.00;;;28.73;;
16804;SDS011;8520;50.102;20.010;2022-11-15T09:54:21;32.60;;;29.90;;
16804;SDS011;8520;50.102;20.010;2022-11-15T09:57:16;33.53;;;30.83;;
16804;SDS011;8520;50.102;20.010;2022-11-15T09:59:59;35.77;;;32.40;;
16804;SDS011;8520;50.102;20.010;2022-11-15T10:02:58;35.17;;;32.53;;
16804;SDS011;8520;50.102;20.010;2022-11-15T10:05:37;36.17;;;33.17;;
16804;SDS011;8520;50.102;20.010;2022-11-15T10:08:12;37.47;;;34.27;;
16804;SDS011;8520;50.102;20.010;2022-11-15T10:10:49;36.70;;;33.60;;
16804;SDS011;8520;50.102;20.010;2022-11-15T10:13:40;36.97;;;33.47;;
16804;SDS011;8520;50.102;20.010;2022-11-15T10:16:13;39.27;;;35.83;;
16804;SDS011;8520;50.102;20.010;2022-11-15T10:19:00;38.73;;;35.33;;
16804;SDS011;8520;50.102;20.010;2022-11-15T10:21:39;40.83;;;37.23;;
16804;SDS011;8520;50.102;20.010;2022-11-15T10:24:20;41.60;;;38.17;;
16804;SDS011;8520;50.102;20.010;2022-11-15T10:26:54;42.03;;;38.33;;
16804;SDS011;8520;50.102;20.010;2022-11-15T10:29:24;43.80;;;40.00;;
16804;SDS011;8520;50.102;20.010;2022-11-15T10:31:52;43.97;;;39.97;;
16804;SDS011;8520;50.102;20.010;2022-11-15T10:34:21;44.43;;;40.20;;
16804;SDS011;8520;50.102;20.010;2022-11-15T10:36:54;45.77;;;41.67;;
16804;SDS011;8520;50.102;20.010;2022-11-15T10:39:25;44.70;;;40.80;;
16804;SDS011;8520;50.102;20.010;2022-11-15T10:41:53;45.43;;;41.37;;
16804;SDS011;8520;50.102;20.010;2022-11-15T10:44:24;46.60;;;42.53;;
16804;SDS011;8520;50.102;20.010;2022-11-15T10:52:54;53.00;;;47.60;;
16804;SDS011;8520;50.102;20.010;2022-11-15T10:55:25;51.40;;;46.30;;
16804;SDS011;8520;50.102;20.010;2022-11-15T10:57:56;53.87;;;48.43;;
16804;SDS011;8520;50.102;20.010;2022-11-15T11:00:30;53.93;;;48.37;;
16804;SDS011;8520;50.102;20.010;2022-11-15T11:03:02;52.73;;;47.23;;
16804;SDS011;8520;50.102;20.010;2022-11-15T11:05:34;53.53;;;48.03;;
16804;SDS011;8520;50.102;20.010;2022-11-15T11:08:20;55.77;;;49.80;;
16804;SDS011;8520;50.102;20.010;2022-11-15T11:10:55;55.13;;;49.37;;
16804;SDS011;8520;50.102;20.010;2022-11-15T11:13:29;53.80;;;48.20;;
16804;SDS011;8520;50.102;20.010;2022-11-15T11:15:59;54.43;;;48.67;;
16804;SDS011;8520;50.102;20.010;2022-11-15T11:18:49;57.43;;;51.13;;
16804;SDS011;8520;50.102;20.010;2022-11-15T11:21:25;56.43;;;49.27;;
16804;SDS011;8520;50.102;20.010;2022-11-15T11:24:07;54.77;;;48.90;;
16804;SDS011;8520;50.102;20.010;2022-11-15T11:26:45;52.57;;;46.93;;
16804;SDS011;8520;50.102;20.010;2022-11-15T11:29:26;52.87;;;45.97;;
16804;SDS011;8520;50.102;20.010;2022-11-15T11:32:03;49.80;;;44.80;;
16804;SDS011;8520;50.102;20.010;2022-11-15T11:34:47;49.53;;;44.43;;
16804;SDS011;8520;50.102;20.010;2022-11-15T11:37:24;42.43;;;38.47;;
16804;SDS011;8520;50.102;20.010;2022-11-15T11:40:01;41.83;;;38.00;;
16804;SDS011;8520;50.102;20.010;2022-11-15T11:42:43;39.33;;;35.70;;
16804;SDS011;8520;50.102;20.010;2022-11-15T11:45:28;40.73;;;36.90;;
16804;SDS011;8520;50.102;20.010;2022-11-15T11:48:13;42.20;;;38.10;;
16804;SDS011;8520;50.102;20.010;2022-11-15T11:50:48;39.67;;;35.77;;
16804;SDS011;8520;50.102;20.010;2022-11-15T11:53:19;35.33;;;31.87;;
16804;SDS011;8520;50.102;20.010;2022-11-15T11:55:54;32.53;;;29.23;;
16804;SDS011;8520;50.102;20.010;2022-11-15T11:58:29;30.55;;;27.45;;
16804;SDS011;8520;50.102;20.010;2022-11-15T12:01:04;28.02;;;25.52;;
16804;SDS011;8520;50.102;20.010;2022-11-15T12:03:39;26.50;;;24.10;;
16804;SDS011;8520;50.102;20.010;2022-11-15T12:06:14;26.25;;;22.83;;
16804;SDS011;8520;50.102;20.010;2022-11-15T12:08:52;23.83;;;21.63;;
16804;SDS011;8520;50.102;20.010;2022-11-15T12:11:26;24.98;;;22.50;;
16804;SDS011;8520;50.102;20.010;2022-11-15T12:14:03;24.05;;;21.85;;
16804;SDS011;8520;50.102;20.010;2022-11-15T12:16:42;24.30;;;22.00;;
16804;SDS011;8520;50.102;20.010;2022-11-15T12:19:10;23.45;;;21.13;;
16804;SDS011;8520;50.102;20.010;2022-11-15T12:21:39;23.75;;;21.75;;
16804;SDS011;8520;50.102;20.010;2022-11-15T12:24:14;22.27;;;20.35;;
16804;SDS011;8520;50.102;20.010;2022-11-15T12:26:48;22.65;;;20.58;;
16804;SDS011;8520;50.102;20.010;2022-11-15T12:29:23;22.33;;;20.52;;
16804;SDS011;8520;50.102;20.010;2022-11-15T12:31:55;22.48;;;20.52;;
16804;SDS011;8520;50.102;20.010;2022-11-15T12:34:35;23.00;;;20.90;;
16804;SDS011;8520;50.102;20.010;2022-11-15T12:40:05;21.85;;;20.05;;
16804;SDS011;8520;50.102;20.010;2022-11-15T12:42:57;22.42;;;20.50;;
16804;SDS011;8520;50.102;20.010;2022-11-15T12:45:47;23.55;;;21.45;;
16804;SDS011;8520;50.102;20.010;2022-11-15T12:54:52;23.70;;;21.47;;
16804;SDS011;8520;50.102;20.010;2022-11-15T12:57:41;24.60;;;22.33;;
16804;SDS011;8520;50.102;20.010;2022-11-15T13:06:06;26.43;;;23.93;;
16804;SDS011;8520;50.102;20.010;2022-11-15T13:08:37;25.10;;;22.50;;
16804;SDS011;8520;50.102;20.010;2022-11-15T13:20:11;26.97;;;24.17;;
16804;SDS011;8520;50.102;20.010;2022-11-15T13:22:49;27.93;;;23.90;;
16804;SDS011;8520;50.102;20.010;2022-11-15T13:25:24;27.67;;;24.90;;
16804;SDS011;8520;50.102;20.010;2022-11-15T13:28:18;27.37;;;24.57;;
16804;SDS011;8520;50.102;20.010;2022-11-15T13:30:50;27.40;;;24.70;;
16804;SDS011;8520;50.102;20.010;2022-11-15T13:33:20;28.27;;;25.27;;
16804;SDS011;8520;50.102;20.010;2022-11-15T13:35:52;28.30;;;25.63;;
16804;SDS011;8520;50.102;20.010;2022-11-15T13:38:27;29.13;;;26.23;;
16804;SDS011;8520;50.102;20.010;2022-11-15T13:40:58;29.87;;;27.03;;
16804;SDS011;8520;50.102;20.010;2022-11-15T13:43:31;29.80;;;27.00;;
16804;SDS011;8520;50.102;20.010;2022-11-15T13:46:03;29.73;;;26.93;;
16804;SDS011;8520;50.102;20.010;2022-11-15T13:48:37;30.10;;;26.97;;
16804;SDS011;8520;50.102;20.010;2022-11-15T13:51:08;32.53;;;29.50;;
16804;SDS011;8520;50.102;20.010;2022-11-15T13:53:42;31.20;;;28.10;;
16804;SDS011;8520;50.102;20.010;2022-11-15T13:56:14;32.03;;;29.00;;
16804;SDS011;8520;50.102;20.010;2022-11-15T13:58:45;31.70;;;28.80;;
16804;SDS011;8520;50.102;20.010;2022-11-15T14:01:15;31.40;;;28.47;;
16804;SDS011;8520;50.102;20.010;2022-11-15T14:03:47;29.50;;;26.90;;
16804;SDS011;8520;50.102;20.010;2022-11-15T14:06:20;32.50;;;29.20;;
16804;SDS011;8520;50.102;20.010;2022-11-15T14:09:04;30.93;;;27.73;;
16804;SDS011;8520;50.102;20.010;2022-11-15T14:11:52;32.13;;;29.13;;
16804;SDS011;8520;50.102;20.010;2022-11-15T14:14:21;32.10;;;28.87;;
16804;SDS011;8520;50.102;20.010;2022-11-15T14:16:51;33.73;;;30.33;;
16804;SDS011;8520;50.102;20.010;2022-11-15T14:19:37;33.40;;;30.17;;
16804;SDS011;8520;50.102;20.010;2022-11-15T14:22:09;33.00;;;29.90;;
16804;SDS011;8520;50.102;20.010;2022-11-15T14:24:42;34.30;;;30.90;;
16804;SDS011;8520;50.102;20.010;2022-11-15T14:27:18;33.97;;;30.77;;
16804;SDS011;8520;50.102;20.010;2022-11-15T14:29:51;32.27;;;29.27;;
16804;SDS011;8520;50.102;20.010;2022-11-15T14:32:20;32.50;;;29.27;;
16804;SDS011;8520;50.102;20.010;2022-11-15T14:34:49;32.17;;;29.30;;
16804;SDS011;8520;50.102;20.010;2022-11-15T14:37:24;34.73;;;31.23;;
16804;SDS011;8520;50.102;20.010;2022-11-15T14:39:53;33.73;;;30.80;;
16804;SDS011;8520;50.102;20.010;2022-11-15T14:42:22;34.70;;;31.43;;
16804;SDS011;8520;50.102;20.010;2022-11-15T14:44:50;34.83;;;31.53;;
16804;SDS011;8520;50.102;20.010;2022-11-15T14:47:19;35.40;;;31.90;;
16804;SDS011;8520;50.102;20.010;2022-11-15T14:49:47;34.60;;;31.50;;
16804;SDS011;8520;50.102;20.010;2022-11-15T14:52:24;36.20;;;32.80;;
16804;SDS011;8520;50.102;20.010;2022-11-15T14:54:58;37.10;;;33.53;;
16804;SDS011;8520;50.102;20.010;2022-11-15T14:57:27;38.43;;;34.23;;
16804;SDS011;8520;50.102;20.010;2022-11-15T14:59:56;37.40;;;33.87;;
16804;SDS011;8520;50.102;20.010;2022-11-15T15:02:37;38.07;;;34.53;;
16804;SDS011;8520;50.102;20.010;2022-11-15T15:05:11;38.97;;;35.17;;
16804;SDS011;8520;50.102;20.010;2022-11-15T15:07:43;40.20;;;36.30;;
16804;SDS011;8520;50.102;20.010;2022-11-15T15:10:11;39.30;;;35.53;;
16804;SDS011;8520;50.102;20.010;2022-11-15T15:13:00;40.37;;;36.70;;
16804;SDS011;8520;50.102;20.010;2022-11-15T15:15:33;42.07;;;38.13;;
16804;SDS011;8520;50.102;20.010;2022-11-15T15:18:02;42.97;;;39.00;;
16804;SDS011;8520;50.102;20.010;2022-11-15T15:20:30;42.97;;;39.00;;
16804;SDS011;8520;50.102;20.010;2022-11-15T15:23:00;43.27;;;39.13;;
16804;SDS011;8520;50.102;20.010;2022-11-15T15:25:29;42.57;;;38.67;;
16804;SDS011;8520;50.102;20.010;2022-11-15T15:27:59;44.90;;;40.50;;
16804;SDS011;8520;50.102;20.010;2022-11-15T15:30:27;45.43;;;41.07;;
16804;SDS011;8520;50.102;20.010;2022-11-15T15:32:56;45.07;;;40.87;;
16804;SDS011;8520;50.102;20.010;2022-11-15T15:35:26;44.97;;;40.67;;
16804;SDS011;8520;50.102;20.010;2022-11-15T15:37:57;44.50;;;40.43;;
16804;SDS011;8520;50.102;20.010;2022-11-15T15:40:27;47.07;;;42.57;;
16804;SDS011;8520;50.102;20.010;2022-11-15T15:42:57;47.43;;;42.80;;
16804;SDS011;8520;50.102;20.010;2022-11-15T15:45:25;47.73;;;42.83;;
16804;SDS011;8520;50.102;20.010;2022-11-15T15:47:54;46.43;;;41.90;;
16804;SDS011;8520;50.102;20.010;2022-11-15T15:50:23;48.50;;;43.73;;
16804;SDS011;8520;50.102;20.010;2022-11-15T15:52:53;47.90;;;43.20;;
16804;SDS011;8520;50.102;20.010;2022-11-15T15:55:22;46.03;;;41.73;;
16804;SDS011;8520;50.102;20.010;2022-11-15T15:57:52;47.80;;;43.17;;
16804;SDS011;8520;50.102;20.010;2022-11-15T16:00:21;46.70;;;42.30;;
16804;SDS011;8520;50.102;20.010;2022-11-15T16:02:51;49.20;;;44.47;;
16804;SDS011;8520;50.102;20.010;2022-11-15T16:05:20;45.80;;;41.60;;
16804;SDS011;8520;50.102;20.010;2022-11-15T16:07:49;46.03;;;41.73;;
16804;SDS011;8520;50.102;20.010;2022-11-15T16:10:21;47.60;;;42.77;;
16804;SDS011;8520;50.102;20.010;2022-11-15T16:12:53;48.83;;;43.60;;
16804;SDS011;8520;50.102;20.010;2022-11-15T16:15:22;46.80;;;41.93;;
16804;SDS011;8520;50.102;20.010;2022-11-15T16:17:52;47.67;;;43.17;;
16804;SDS011;8520;50.102;20.010;2022-11-15T16:20:23;45.90;;;41.73;;
16804;SDS011;8520;50.102;20.010;2022-11-15T16:22:58;47.27;;;42.37;;